sensor_id;sensor_type;location;lat;lon;timestamp;temperature;humidity
13458;DHT22;6801;53.018;11.560;2022-12-18T00:00:04;-3274.80;77.50
13458;DHT22;6801;53.018;11.560;2022-12-18T00:02:39;-3274.80;77.60
13458;DHT22;6801;53.018;11.560;2022-12-18T00:05:07;-3274.80;77.90
13458;DHT22;6801;53.018;11.560;2022-12-18T00:07:34;-3274.80;77.80
13458;DHT22;6801;53.018;11.560;2022-12-18T00:10:02;-3274.80;77.80
13458;DHT22;6801;53.018;11.560;2022-12-18T00:12:29;-3274.80;77.70
13458;DHT22;6801;53.018;11.560;2022-12-18T00:14:56;-3274.80;77.70
13458;DHT22;6801;53.018;11.560;2022-12-18T00:17:25;-3274.70;77.80
13458;DHT22;6801;53.018;11.560;2022-12-18T00:19:53;-3274.80;78.10
13458;DHT22;6801;53.018;11.560;2022-12-18T00:22:20;-3274.80;78.10
13458;DHT22;6801;53.018;11.560;2022-12-18T00:24:47;-3274.90;78.00
13458;DHT22;6801;53.018;11.560;2022-12-18T00:27:15;-3274.90;77.70
13458;DHT22;6801;53.018;11.560;2022-12-18T00:29:43;-3274.90;77.40
13458;DHT22;6801;53.018;11.560;2022-12-18T00:32:10;-3274.90;77.10
13458;DHT22;6801;53.018;11.560;2022-12-18T00:34:39;-3274.90;77.50
13458;DHT22;6801;53.018;11.560;2022-12-18T00:37:08;-3274.80;77.50
13458;DHT22;6801;53.018;11.560;2022-12-18T00:39:36;-3274.90;77.40
13458;DHT22;6801;53.018;11.560;2022-12-18T00:42:03;-3274.80;77.40
13458;DHT22;6801;53.018;11.560;2022-12-18T00:44:53;-3274.80;77.50
13458;DHT22;6801;53.018;11.560;2022-12-18T00:47:20;-3274.80;77.40
13458;DHT22;6801;53.018;11.560;2022-12-18T00:49:49;-3274.70;77.10
13458;DHT22;6801;53.018;11.560;2022-12-18T00:52:17;-3274.70;77.50
13458;DHT22;6801;53.018;11.560;2022-12-18T00:54:44;-3274.70;77.60
13458;DHT22;6801;53.018;11.560;2022-12-18T00:57:11;-3274.80;77.70
13458;DHT22;6801;53.018;11.560;2022-12-18T00:59:38;-3274.80;77.40
13458;DHT22;6801;53.018;11.560;2022-12-18T01:02:05;-3274.80;77.30
13458;DHT22;6801;53.018;11.560;2022-12-18T01:04:33;-3274.80;77.40
13458;DHT22;6801;53.018;11.560;2022-12-18T01:07:02;-3274.80;77.20
13458;DHT22;6801;53.018;11.560;2022-12-18T01:09:29;-3274.90;77.10
13458;DHT22;6801;53.018;11.560;2022-12-18T01:11:56;-3274.80;76.80
13458;DHT22;6801;53.018;11.560;2022-12-18T01:14:23;-3274.70;77.00
13458;DHT22;6801;53.018;11.560;2022-12-18T01:16:52;-3274.80;77.30
13458;DHT22;6801;53.018;11.560;2022-12-18T01:19:19;-3274.80;77.10
13458;DHT22;6801;53.018;11.560;2022-12-18T01:21:47;-3274.80;77.00
13458;DHT22;6801;53.018;11.560;2022-12-18T01:24:17;-3274.80;76.80
13458;DHT22;6801;53.018;11.560;2022-12-18T01:26:44;-3274.80;76.60
13458;DHT22;6801;53.018;11.560;2022-12-18T01:29:13;-3274.80;76.70
13458;DHT22;6801;53.018;11.560;2022-12-18T01:31:41;-3274.80;76.60
13458;DHT22;6801;53.018;11.560;2022-12-18T01:34:09;-3274.80;76.70
13458;DHT22;6801;53.018;11.560;2022-12-18T01:36:38;-3274.70;76.80
13458;DHT22;6801;53.018;11.560;2022-12-18T01:39:07;-3274.70;76.70
13458;DHT22;6801;53.018;11.560;2022-12-18T01:41:37;-3274.60;77.10
13458;DHT22;6801;53.018;11.560;2022-12-18T01:44:56;-3274.70;77.10
13458;DHT22;6801;53.018;11.560;2022-12-18T01:47:27;-3274.80;76.70
13458;DHT22;6801;53.018;11.560;2022-12-18T01:49:57;-3274.80;76.20
13458;DHT22;6801;53.018;11.560;2022-12-18T01:52:27;-3274.70;76.60
13458;DHT22;6801;53.018;11.560;2022-12-18T01:54:56;-3274.70;76.50
13458;DHT22;6801;53.018;11.560;2022-12-18T01:57:27;-3274.70;76.30
13458;DHT22;6801;53.018;11.560;2022-12-18T01:59:59;-3274.70;75.90
13458;DHT22;6801;53.018;11.560;2022-12-18T02:02:39;-3274.60;76.40
13458;DHT22;6801;53.018;11.560;2022-12-18T02:05:08;-3274.60;76.70
13458;DHT22;6801;53.018;11.560;2022-12-18T02:07:43;-3274.60;76.60
13458;DHT22;6801;53.018;11.560;2022-12-18T02:10:17;-3274.60;76.50
13458;DHT22;6801;53.018;11.560;2022-12-18T02:12:53;-3274.60;76.70
13458;DHT22;6801;53.018;11.560;2022-12-18T02:15:27;-3274.60;76.20
13458;DHT22;6801;53.018;11.560;2022-12-18T02:18:02;-3274.60;76.30
13458;DHT22;6801;53.018;11.560;2022-12-18T02:20:36;-3274.60;76.30
13458;DHT22;6801;53.018;11.560;2022-12-18T02:23:11;-3274.60;76.10
13458;DHT22;6801;53.018;11.560;2022-12-18T02:25:57;-3274.50;76.20
13458;DHT22;6801;53.018;11.560;2022-12-18T02:28:31;-3274.60;76.40
13458;DHT22;6801;53.018;11.560;2022-12-18T02:31:07;-3274.50;76.10
13458;DHT22;6801;53.018;11.560;2022-12-18T02:33:36;-3274.60;76.30
13458;DHT22;6801;53.018;11.560;2022-12-18T02:36:07;-3274.50;76.20
13458;DHT22;6801;53.018;11.560;2022-12-18T02:38:37;-3274.50;76.30
13458;DHT22;6801;53.018;11.560;2022-12-18T02:41:13;-3274.50;76.20
13458;DHT22;6801;53.018;11.560;2022-12-18T02:43:53;-3274.50;76.20
13458;DHT22;6801;53.018;11.560;2022-12-18T02:46:30;-3274.50;76.10
13458;DHT22;6801;53.018;11.560;2022-12-18T02:49:17;-3274.50;76.00
13458;DHT22;6801;53.018;11.560;2022-12-18T02:51:53;-3274.50;75.90
13458;DHT22;6801;53.018;11.560;2022-12-18T02:54:40;-3274.50;75.80
13458;DHT22;6801;53.018;11.560;2022-12-18T02:57:16;-3274.50;75.60
13458;DHT22;6801;53.018;11.560;2022-12-18T02:59:54;-3274.60;75.60
13458;DHT22;6801;53.018;11.560;2022-12-18T03:02:26;-3274.60;75.60
13458;DHT22;6801;53.018;11.560;2022-12-18T03:05:00;-3274.50;75.50
13458;DHT22;6801;53.018;11.560;2022-12-18T03:07:35;-3274.50;75.30
13458;DHT22;6801;53.018;11.560;2022-12-18T03:10:09;-3274.50;75.20
13458;DHT22;6801;53.018;11.560;2022-12-18T03:12:43;-3274.50;75.50
13458;DHT22;6801;53.018;11.560;2022-12-18T03:15:16;-3274.50;75.50
13458;DHT22;6801;53.018;11.560;2022-12-18T03:17:48;-3274.50;75.50
13458;DHT22;6801;53.018;11.560;2022-12-18T03:20:21;-3274.50;75.30
13458;DHT22;6801;53.018;11.560;2022-12-18T03:22:51;-3274.50;75.50
13458;DHT22;6801;53.018;11.560;2022-12-18T03:25:21;-3274.40;75.60
13458;DHT22;6801;53.018;11.560;2022-12-18T03:27:55;-3274.40;75.90
13458;DHT22;6801;53.018;11.560;2022-12-18T03:30:25;-3274.30;75.90
13458;DHT22;6801;53.018;11.560;2022-12-18T03:32:57;-3274.30;75.90
13458;DHT22;6801;53.018;11.560;2022-12-18T03:35:30;-3274.30;76.10
13458;DHT22;6801;53.018;11.560;2022-12-18T03:37:58;-3274.20;76.30
13458;DHT22;6801;53.018;11.560;2022-12-18T03:40:31;-3274.20;76.10
13458;DHT22;6801;53.018;11.560;2022-12-18T03:43:07;-3274.30;76.10
13458;DHT22;6801;53.018;11.560;2022-12-18T03:45:39;-3274.20;76.10
13458;DHT22;6801;53.018;11.560;2022-12-18T03:48:16;-3274.20;76.30
13458;DHT22;6801;53.018;11.560;2022-12-18T03:50:52;-3274.20;76.30
13458;DHT22;6801;53.018;11.560;2022-12-18T03:53:28;-3274.20;76.30
13458;DHT22;6801;53.018;11.560;2022-12-18T03:55:59;-3274.20;76.30
13458;DHT22;6801;53.018;11.560;2022-12-18T03:58:34;-3274.20;76.30
13458;DHT22;6801;53.018;11.560;2022-12-18T04:01:15;-3274.10;76.40
13458;DHT22;6801;53.018;11.560;2022-12-18T04:03:45;-3274.10;76.40
13458;DHT22;6801;53.018;11.560;2022-12-18T04:06:14;-3274.10;76.50
13458;DHT22;6801;53.018;11.560;2022-12-18T04:08:43;-3274.10;76.30
13458;DHT22;6801;53.018;11.560;2022-12-18T04:11:15;-3274.10;75.90
13458;DHT22;6801;53.018;11.560;2022-12-18T04:13:46;-3274.10;76.10
13458;DHT22;6801;53.018;11.560;2022-12-18T04:16:21;-3274.00;76.50
13458;DHT22;6801;53.018;11.560;2022-12-18T04:18:52;-3274.00;76.00
13458;DHT22;6801;53.018;11.560;2022-12-18T04:21:20;-3274.00;76.50
13458;DHT22;6801;53.018;11.560;2022-12-18T04:23:49;-3274.00;76.60
13458;DHT22;6801;53.018;11.560;2022-12-18T04:26:19;-3274.10;76.00
13458;DHT22;6801;53.018;11.560;2022-12-18T04:28:58;-3274.10;75.90
13458;DHT22;6801;53.018;11.560;2022-12-18T04:31:25;-3274.10;76.00
13458;DHT22;6801;53.018;11.560;2022-12-18T04:33:52;-3274.10;75.80
13458;DHT22;6801;53.018;11.560;2022-12-18T04:36:20;-3274.10;75.70
13458;DHT22;6801;53.018;11.560;2022-12-18T04:38:47;-3274.10;75.70
13458;DHT22;6801;53.018;11.560;2022-12-18T04:41:16;-3274.10;75.70
13458;DHT22;6801;53.018;11.560;2022-12-18T04:43:46;-3274.10;75.50
13458;DHT22;6801;53.018;11.560;2022-12-18T04:46:15;-3274.10;75.40
13458;DHT22;6801;53.018;11.560;2022-12-18T04:48:46;-3274.10;75.30
13458;DHT22;6801;53.018;11.560;2022-12-18T04:51:13;-3274.10;75.10
13458;DHT22;6801;53.018;11.560;2022-12-18T04:53:41;-3274.00;75.40
13458;DHT22;6801;53.018;11.560;2022-12-18T04:56:10;-3274.00;75.60
13458;DHT22;6801;53.018;11.560;2022-12-18T04:58:40;-3274.00;75.30
13458;DHT22;6801;53.018;11.560;2022-12-18T05:01:09;-3274.00;75.10
13458;DHT22;6801;53.018;11.560;2022-12-18T05:03:38;-3274.10;75.00
13458;DHT22;6801;53.018;11.560;2022-12-18T05:06:06;-3274.00;75.30
13458;DHT22;6801;53.018;11.560;2022-12-18T05:08:34;-3273.90;75.50
13458;DHT22;6801;53.018;11.560;2022-12-18T05:11:03;-3274.00;75.30
13458;DHT22;6801;53.018;11.560;2022-12-18T05:13:31;-3274.00;75.10
13458;DHT22;6801;53.018;11.560;2022-12-18T05:16:00;-3274.00;75.20
13458;DHT22;6801;53.018;11.560;2022-12-18T05:18:28;-3274.00;75.10
13458;DHT22;6801;53.018;11.560;2022-12-18T05:20:57;-3273.90;75.10
13458;DHT22;6801;53.018;11.560;2022-12-18T05:23:25;-3273.90;75.50
13458;DHT22;6801;53.018;11.560;2022-12-18T05:25:53;-3273.80;75.70
13458;DHT22;6801;53.018;11.560;2022-12-18T05:28:21;-3273.80;75.80
13458;DHT22;6801;53.018;11.560;2022-12-18T05:30:49;-3273.90;75.70
13458;DHT22;6801;53.018;11.560;2022-12-18T05:33:17;-3273.90;75.50
13458;DHT22;6801;53.018;11.560;2022-12-18T05:35:44;-3274.00;74.90
13458;DHT22;6801;53.018;11.560;2022-12-18T05:38:18;-3274.00;75.00
13458;DHT22;6801;53.018;11.560;2022-12-18T05:40:46;-3274.00;74.80
13458;DHT22;6801;53.018;11.560;2022-12-18T05:43:14;-3274.00;74.80
13458;DHT22;6801;53.018;11.560;2022-12-18T05:45:41;-3274.00;75.00
13458;DHT22;6801;53.018;11.560;2022-12-18T05:48:09;-3274.10;75.00
13458;DHT22;6801;53.018;11.560;2022-12-18T05:50:41;-3274.00;74.60
13458;DHT22;6801;53.018;11.560;2022-12-18T05:53:09;-3274.10;74.50
13458;DHT22;6801;53.018;11.560;2022-12-18T05:55:40;-3274.00;74.10
13458;DHT22;6801;53.018;11.560;2022-12-18T05:58:08;-3274.00;74.50
13458;DHT22;6801;53.018;11.560;2022-12-18T06:00:43;-3274.00;74.60
13458;DHT22;6801;53.018;11.560;2022-12-18T06:03:12;-3274.00;74.60
13458;DHT22;6801;53.018;11.560;2022-12-18T06:05:41;-3273.90;74.40
13458;DHT22;6801;53.018;11.560;2022-12-18T06:08:09;-3273.90;74.70
13458;DHT22;6801;53.018;11.560;2022-12-18T06:10:38;-3273.90;74.80
13458;DHT22;6801;53.018;11.560;2022-12-18T06:13:05;-3273.80;74.70
13458;DHT22;6801;53.018;11.560;2022-12-18T06:15:35;-3273.90;74.70
13458;DHT22;6801;53.018;11.560;2022-12-18T06:18:03;-3273.90;74.50
13458;DHT22;6801;53.018;11.560;2022-12-18T06:20:30;-3273.80;74.90
13458;DHT22;6801;53.018;11.560;2022-12-18T06:22:57;-3273.80;75.00
13458;DHT22;6801;53.018;11.560;2022-12-18T06:25:25;-3273.70;75.20
13458;DHT22;6801;53.018;11.560;2022-12-18T06:27:53;-3273.70;75.30
13458;DHT22;6801;53.018;11.560;2022-12-18T06:30:20;-3273.70;75.50
13458;DHT22;6801;53.018;11.560;2022-12-18T06:32:48;-3273.70;75.40
13458;DHT22;6801;53.018;11.560;2022-12-18T06:35:15;-3273.80;75.00
13458;DHT22;6801;53.018;11.560;2022-12-18T06:37:42;-3273.80;75.10
13458;DHT22;6801;53.018;11.560;2022-12-18T06:40:10;-3273.90;74.80
13458;DHT22;6801;53.018;11.560;2022-12-18T06:42:37;-3273.80;75.00
13458;DHT22;6801;53.018;11.560;2022-12-18T06:45:06;-3273.80;74.90
13458;DHT22;6801;53.018;11.560;2022-12-18T06:47:34;-3273.80;74.90
13458;DHT22;6801;53.018;11.560;2022-12-18T06:50:01;-3273.80;74.80
13458;DHT22;6801;53.018;11.560;2022-12-18T06:52:31;-3273.80;74.70
13458;DHT22;6801;53.018;11.560;2022-12-18T06:54:58;-3273.80;74.40
13458;DHT22;6801;53.018;11.560;2022-12-18T06:57:25;-3273.80;74.70
13458;DHT22;6801;53.018;11.560;2022-12-18T06:59:52;-3273.70;74.50
13458;DHT22;6801;53.018;11.560;2022-12-18T07:02:21;-3273.70;74.90
13458;DHT22;6801;53.018;11.560;2022-12-18T07:04:48;-3273.70;75.00
13458;DHT22;6801;53.018;11.560;2022-12-18T07:07:19;-3273.70;75.00
13458;DHT22;6801;53.018;11.560;2022-12-18T07:09:46;-3273.70;74.90
13458;DHT22;6801;53.018;11.560;2022-12-18T07:12:15;-3273.70;74.60
13458;DHT22;6801;53.018;11.560;2022-12-18T07:14:42;-3273.70;74.50
13458;DHT22;6801;53.018;11.560;2022-12-18T07:17:09;-3273.60;74.70
13458;DHT22;6801;53.018;11.560;2022-12-18T07:19:38;-3273.60;74.80
13458;DHT22;6801;53.018;11.560;2022-12-18T07:22:05;-3273.70;74.90
13458;DHT22;6801;53.018;11.560;2022-12-18T07:24:32;-3273.70;74.50
13458;DHT22;6801;53.018;11.560;2022-12-18T07:27:00;-3273.60;74.60
13458;DHT22;6801;53.018;11.560;2022-12-18T07:29:27;-3273.60;74.50
13458;DHT22;6801;53.018;11.560;2022-12-18T07:31:55;-3273.60;74.60
13458;DHT22;6801;53.018;11.560;2022-12-18T07:34:22;-3273.60;74.80
13458;DHT22;6801;53.018;11.560;2022-12-18T07:36:51;-3273.60;74.80
13458;DHT22;6801;53.018;11.560;2022-12-18T07:39:18;-3273.50;75.10
13458;DHT22;6801;53.018;11.560;2022-12-18T07:41:46;-3273.50;75.50
13458;DHT22;6801;53.018;11.560;2022-12-18T07:44:33;-3273.50;75.10
13458;DHT22;6801;53.018;11.560;2022-12-18T07:47:00;-3273.60;74.80
13458;DHT22;6801;53.018;11.560;2022-12-18T07:49:28;-3273.60;74.90
13458;DHT22;6801;53.018;11.560;2022-12-18T07:51:58;-3273.50;74.70
13458;DHT22;6801;53.018;11.560;2022-12-18T07:54:25;-3273.60;74.70
13458;DHT22;6801;53.018;11.560;2022-12-18T07:56:52;-3273.70;74.10
13458;DHT22;6801;53.018;11.560;2022-12-18T07:59:19;-3273.60;74.00
13458;DHT22;6801;53.018;11.560;2022-12-18T08:01:47;-3273.60;74.30
13458;DHT22;6801;53.018;11.560;2022-12-18T08:04:14;-3273.50;74.60
13458;DHT22;6801;53.018;11.560;2022-12-18T08:06:41;-3273.50;74.70
13458;DHT22;6801;53.018;11.560;2022-12-18T08:09:11;-3273.60;74.60
13458;DHT22;6801;53.018;11.560;2022-12-18T08:11:38;-3273.60;74.40
13458;DHT22;6801;53.018;11.560;2022-12-18T08:14:05;-3273.60;74.30
13458;DHT22;6801;53.018;11.560;2022-12-18T08:16:33;-3273.60;74.40
13458;DHT22;6801;53.018;11.560;2022-12-18T08:19:00;-3273.50;74.30
13458;DHT22;6801;53.018;11.560;2022-12-18T08:21:29;-3273.50;74.50
13458;DHT22;6801;53.018;11.560;2022-12-18T08:23:58;-3273.50;74.50
13458;DHT22;6801;53.018;11.560;2022-12-18T08:26:29;-3273.60;74.70
13458;DHT22;6801;53.018;11.560;2022-12-18T08:28:57;-3273.50;74.70
13458;DHT22;6801;53.018;11.560;2022-12-18T08:31:25;-3273.50;74.50
13458;DHT22;6801;53.018;11.560;2022-12-18T08:33:53;-3273.50;74.50
13458;DHT22;6801;53.018;11.560;2022-12-18T08:36:21;-3273.60;74.40
13458;DHT22;6801;53.018;11.560;2022-12-18T08:38:48;-3273.60;74.30
13458;DHT22;6801;53.018;11.560;2022-12-18T08:41:16;-3273.50;74.60
13458;DHT22;6801;53.018;11.560;2022-12-18T08:43:45;-3273.60;74.50
13458;DHT22;6801;53.018;11.560;2022-12-18T08:46:37;-3273.60;74.00
13458;DHT22;6801;53.018;11.560;2022-12-18T08:49:05;-3273.50;74.80
13458;DHT22;6801;53.018;11.560;2022-12-18T08:51:33;-3273.50;74.70
13458;DHT22;6801;53.018;11.560;2022-12-18T08:54:02;-3273.50;74.80
13458;DHT22;6801;53.018;11.560;2022-12-18T08:56:30;-3273.50;75.00
13458;DHT22;6801;53.018;11.560;2022-12-18T08:59:00;-3273.50;75.20
13458;DHT22;6801;53.018;11.560;2022-12-18T09:01:27;-3273.50;75.30
13458;DHT22;6801;53.018;11.560;2022-12-18T09:03:55;-3273.50;75.30
13458;DHT22;6801;53.018;11.560;2022-12-18T09:06:23;-3273.50;75.50
13458;DHT22;6801;53.018;11.560;2022-12-18T09:08:50;-3273.50;75.10
13458;DHT22;6801;53.018;11.560;2022-12-18T09:11:20;-3273.60;75.10
13458;DHT22;6801;53.018;11.560;2022-12-18T09:13:48;-3273.60;75.30
13458;DHT22;6801;53.018;11.560;2022-12-18T09:16:17;-3273.70;75.40
13458;DHT22;6801;53.018;11.560;2022-12-18T09:18:45;-3273.70;75.10
13458;DHT22;6801;53.018;11.560;2022-12-18T09:21:14;-3273.70;75.00
13458;DHT22;6801;53.018;11.560;2022-12-18T09:23:42;-3273.70;75.00
13458;DHT22;6801;53.018;11.560;2022-12-18T09:26:09;-3273.80;75.00
13458;DHT22;6801;53.018;11.560;2022-12-18T09:28:37;-3273.80;74.80
13458;DHT22;6801;53.018;11.560;2022-12-18T09:31:05;-3273.80;74.60
13458;DHT22;6801;53.018;11.560;2022-12-18T09:33:35;-3273.80;74.90
13458;DHT22;6801;53.018;11.560;2022-12-18T09:36:04;-3273.80;74.60
13458;DHT22;6801;53.018;11.560;2022-12-18T09:38:32;-3273.80;74.60
13458;DHT22;6801;53.018;11.560;2022-12-18T09:41:02;-3273.90;74.60
13458;DHT22;6801;53.018;11.560;2022-12-18T09:43:37;-3273.90;74.50
13458;DHT22;6801;53.018;11.560;2022-12-18T09:46:10;-3273.90;74.30
13458;DHT22;6801;53.018;11.560;2022-12-18T09:48:44;-3273.90;74.30
13458;DHT22;6801;53.018;11.560;2022-12-18T09:51:15;-3273.90;74.30
13458;DHT22;6801;53.018;11.560;2022-12-18T09:53:46;-3273.90;74.80
13458;DHT22;6801;53.018;11.560;2022-12-18T09:56:17;-3273.90;74.80
13458;DHT22;6801;53.018;11.560;2022-12-18T09:58:53;-3273.90;74.60
13458;DHT22;6801;53.018;11.560;2022-12-18T10:01:22;-3274.00;74.60
13458;DHT22;6801;53.018;11.560;2022-12-18T10:03:53;-3274.00;74.60
13458;DHT22;6801;53.018;11.560;2022-12-18T10:06:23;-3273.90;74.70
13458;DHT22;6801;53.018;11.560;2022-12-18T10:08:56;-3274.00;74.90
13458;DHT22;6801;53.018;11.560;2022-12-18T10:11:38;-3274.00;75.10
13458;DHT22;6801;53.018;11.560;2022-12-18T10:14:13;-3274.00;74.90
13458;DHT22;6801;53.018;11.560;2022-12-18T10:16:53;-3274.00;75.00
13458;DHT22;6801;53.018;11.560;2022-12-18T10:19:36;-3274.00;74.90
13458;DHT22;6801;53.018;11.560;2022-12-18T10:22:14;-3274.10;75.00
13458;DHT22;6801;53.018;11.560;2022-12-18T10:24:49;-3274.10;75.10
13458;DHT22;6801;53.018;11.560;2022-12-18T10:27:23;-3274.00;75.30
13458;DHT22;6801;53.018;11.560;2022-12-18T10:29:52;-3274.00;75.70
13458;DHT22;6801;53.018;11.560;2022-12-18T10:32:21;-3274.00;75.50
13458;DHT22;6801;53.018;11.560;2022-12-18T10:34:53;-3274.00;75.80
13458;DHT22;6801;53.018;11.560;2022-12-18T10:37:23;-3274.00;75.80
13458;DHT22;6801;53.018;11.560;2022-12-18T10:40:07;-3274.00;76.00
13458;DHT22;6801;53.018;11.560;2022-12-18T10:42:35;-3274.00;76.10
13458;DHT22;6801;53.018;11.560;2022-12-18T10:45:09;-3274.00;76.20
13458;DHT22;6801;53.018;11.560;2022-12-18T10:47:37;-3274.00;76.40
13458;DHT22;6801;53.018;11.560;2022-12-18T10:50:18;-3274.10;76.60
13458;DHT22;6801;53.018;11.560;2022-12-18T10:52:54;-3274.10;76.40
13458;DHT22;6801;53.018;11.560;2022-12-18T10:55:21;-3274.10;76.40
13458;DHT22;6801;53.018;11.560;2022-12-18T10:57:49;-3274.10;76.30
13458;DHT22;6801;53.018;11.560;2022-12-18T11:00:28;-3274.20;76.60
13458;DHT22;6801;53.018;11.560;2022-12-18T11:02:56;-3274.20;76.60
13458;DHT22;6801;53.018;11.560;2022-12-18T11:05:28;-3274.20;76.70
13458;DHT22;6801;53.018;11.560;2022-12-18T11:07:56;-3274.30;76.60
13458;DHT22;6801;53.018;11.560;2022-12-18T11:10:28;-3274.30;76.60
13458;DHT22;6801;53.018;11.560;2022-12-18T11:12:55;-3274.30;76.50
13458;DHT22;6801;53.018;11.560;2022-12-18T11:15:26;-3274.30;76.70
13458;DHT22;6801;53.018;11.560;2022-12-18T11:17:55;-3274.40;76.70
13458;DHT22;6801;53.018;11.560;2022-12-18T11:20:31;-3274.40;76.60
13458;DHT22;6801;53.018;11.560;2022-12-18T11:23:00;-3274.40;76.60
13458;DHT22;6801;53.018;11.560;2022-12-18T11:25:28;-3274.50;76.60
13458;DHT22;6801;53.018;11.560;2022-12-18T11:27:58;-3274.50;76.30
13458;DHT22;6801;53.018;11.560;2022-12-18T11:30:27;-3274.50;76.40
13458;DHT22;6801;53.018;11.560;2022-12-18T11:33:01;-3274.50;76.50
13458;DHT22;6801;53.018;11.560;2022-12-18T11:35:45;-3274.60;76.50
13458;DHT22;6801;53.018;11.560;2022-12-18T11:38:20;-3274.60;76.60
13458;DHT22;6801;53.018;11.560;2022-12-18T11:40:56;-3274.60;76.50
13458;DHT22;6801;53.018;11.560;2022-12-18T11:43:28;-3274.60;76.70
13458;DHT22;6801;53.018;11.560;2022-12-18T11:46:00;-3274.60;77.00
13458;DHT22;6801;53.018;11.560;2022-12-18T11:48:32;-3274.70;77.20
13458;DHT22;6801;53.018;11.560;2022-12-18T11:51:05;-3274.70;77.10
13458;DHT22;6801;53.018;11.560;2022-12-18T11:53:35;-3274.80;77.10
13458;DHT22;6801;53.018;11.560;2022-12-18T11:56:25;-3274.80;77.20
13458;DHT22;6801;53.018;11.560;2022-12-18T11:58:58;-3274.90;77.30
13458;DHT22;6801;53.018;11.560;2022-12-18T12:01:40;-3274.90;77.40
13458;DHT22;6801;53.018;11.560;2022-12-18T12:04:30;-3275.00;77.50
13458;DHT22;6801;53.018;11.560;2022-12-18T12:07:10;-3275.00;77.40
13458;DHT22;6801;53.018;11.560;2022-12-18T12:09:51;-3275.00;77.60
13458;DHT22;6801;53.018;11.560;2022-12-18T12:12:32;-3275.10;77.60
13458;DHT22;6801;53.018;11.560;2022-12-18T12:15:21;-3275.10;77.40
13458;DHT22;6801;53.018;11.560;2022-12-18T12:17:53;-3275.20;77.40
13458;DHT22;6801;53.018;11.560;2022-12-18T12:20:25;-3275.20;77.60
13458;DHT22;6801;53.018;11.560;2022-12-18T12:22:59;-3275.20;77.50
13458;DHT22;6801;53.018;11.560;2022-12-18T12:25:35;-3275.20;77.40
13458;DHT22;6801;53.018;11.560;2022-12-18T12:28:13;-3275.30;77.50
13458;DHT22;6801;53.018;11.560;2022-12-18T12:30:50;-3275.30;77.40
13458;DHT22;6801;53.018;11.560;2022-12-18T12:33:31;-3275.30;77.40
13458;DHT22;6801;53.018;11.560;2022-12-18T12:36:07;-3275.40;77.50
13458;DHT22;6801;53.018;11.560;2022-12-18T12:38:44;-3275.30;77.60
13458;DHT22;6801;53.018;11.560;2022-12-18T12:41:18;-3275.30;77.80
13458;DHT22;6801;53.018;11.560;2022-12-18T12:44:07;-3275.40;77.80
13458;DHT22;6801;53.018;11.560;2022-12-18T12:46:37;-3275.40;77.90
13458;DHT22;6801;53.018;11.560;2022-12-18T12:49:12;-3275.60;78.00
13458;DHT22;6801;53.018;11.560;2022-12-18T12:51:43;-3275.70;77.70
13458;DHT22;6801;53.018;11.560;2022-12-18T12:54:34;-3275.70;77.70
13458;DHT22;6801;53.018;11.560;2022-12-18T12:57:10;-3275.80;77.30
13458;DHT22;6801;53.018;11.560;2022-12-18T12:59:47;-3275.70;77.50
13458;DHT22;6801;53.018;11.560;2022-12-18T13:02:22;-3275.70;77.70
13458;DHT22;6801;53.018;11.560;2022-12-18T13:04:54;-3275.80;77.70
13458;DHT22;6801;53.018;11.560;2022-12-18T13:07:27;-3275.80;77.60
13458;DHT22;6801;53.018;11.560;2022-12-18T13:10:25;-3275.90;77.30
13458;DHT22;6801;53.018;11.560;2022-12-18T13:12:57;-3275.90;77.20
13458;DHT22;6801;53.018;11.560;2022-12-18T13:15:30;-3275.90;77.30
13458;DHT22;6801;53.018;11.560;2022-12-18T13:18:13;-3276.00;77.20
13458;DHT22;6801;53.018;11.560;2022-12-18T13:20:42;-3275.90;77.10
13458;DHT22;6801;53.018;11.560;2022-12-18T13:23:31;-3275.90;77.10
13458;DHT22;6801;53.018;11.560;2022-12-18T13:26:30;-3275.90;77.20
13458;DHT22;6801;53.018;11.560;2022-12-18T13:28:59;-3275.90;77.40
13458;DHT22;6801;53.018;11.560;2022-12-18T13:34:15;-3275.90;77.50
13458;DHT22;6801;53.018;11.560;2022-12-18T13:36:43;-3275.90;77.30
13458;DHT22;6801;53.018;11.560;2022-12-18T13:39:32;-3275.90;77.40
13458;DHT22;6801;53.018;11.560;2022-12-18T13:42:36;-3275.90;77.40
13458;DHT22;6801;53.018;11.560;2022-12-18T13:45:44;-3275.90;77.30
13458;DHT22;6801;53.018;11.560;2022-12-18T13:48:24;-3275.90;77.30
13458;DHT22;6801;53.018;11.560;2022-12-18T13:50:59;-3275.80;77.40
13458;DHT22;6801;53.018;11.560;2022-12-18T13:53:29;-3275.90;77.60
13458;DHT22;6801;53.018;11.560;2022-12-18T13:55:58;-3275.80;77.60
13458;DHT22;6801;53.018;11.560;2022-12-18T13:58:31;-3275.80;77.80
13458;DHT22;6801;53.018;11.560;2022-12-18T14:01:01;-3275.90;77.70
13458;DHT22;6801;53.018;11.560;2022-12-18T14:03:30;-3276.00;77.60
13458;DHT22;6801;53.018;11.560;2022-12-18T14:06:03;-3275.90;77.40
13458;DHT22;6801;53.018;11.560;2022-12-18T14:08:38;-3276.00;77.40
13458;DHT22;6801;53.018;11.560;2022-12-18T14:11:23;-3275.90;77.10
13458;DHT22;6801;53.018;11.560;2022-12-18T14:13:55;-3276.00;77.20
13458;DHT22;6801;53.018;11.560;2022-12-18T14:16:23;-3276.00;77.20
13458;DHT22;6801;53.018;11.560;2022-12-18T14:18:53;-3276.00;76.80
13458;DHT22;6801;53.018;11.560;2022-12-18T14:21:23;-3276.00;76.80
13458;DHT22;6801;53.018;11.560;2022-12-18T14:24:04;-3276.00;76.90
13458;DHT22;6801;53.018;11.560;2022-12-18T14:26:32;-3276.00;76.90
13458;DHT22;6801;53.018;11.560;2022-12-18T14:29:21;-3275.90;77.00
13458;DHT22;6801;53.018;11.560;2022-12-18T14:32:04;-3276.00;76.80
13458;DHT22;6801;53.018;11.560;2022-12-18T14:34:32;-3276.00;76.60
13458;DHT22;6801;53.018;11.560;2022-12-18T14:37:00;-3275.90;76.80
13458;DHT22;6801;53.018;11.560;2022-12-18T14:39:28;-3275.90;76.80
13458;DHT22;6801;53.018;11.560;2022-12-18T14:41:56;-3275.90;76.90
13458;DHT22;6801;53.018;11.560;2022-12-18T14:44:25;-3275.90;76.90
13458;DHT22;6801;53.018;11.560;2022-12-18T14:46:53;-3275.90;76.80
13458;DHT22;6801;53.018;11.560;2022-12-18T14:49:24;-3275.80;76.80
13458;DHT22;6801;53.018;11.560;2022-12-18T14:51:55;-3275.80;76.90
13458;DHT22;6801;53.018;11.560;2022-12-18T14:54:24;-3275.80;76.90
13458;DHT22;6801;53.018;11.560;2022-12-18T14:56:59;-3275.80;76.50
13458;DHT22;6801;53.018;11.560;2022-12-18T14:59:29;-3275.70;76.70
13458;DHT22;6801;53.018;11.560;2022-12-18T15:02:00;-3275.70;76.80
13458;DHT22;6801;53.018;11.560;2022-12-18T15:04:31;-3275.70;77.00
13458;DHT22;6801;53.018;11.560;2022-12-18T15:07:03;-3275.70;76.70
13458;DHT22;6801;53.018;11.560;2022-12-18T15:09:30;-3275.70;76.70
13458;DHT22;6801;53.018;11.560;2022-12-18T15:11:58;-3275.70;76.40
13458;DHT22;6801;53.018;11.560;2022-12-18T15:14:33;-3275.70;76.20
13458;DHT22;6801;53.018;11.560;2022-12-18T15:17:05;-3275.60;76.40